Time;durP1;ratioP1;P1;durP2;ratioP2;P2;SDS_P1;SDS_P2;PMS_P1;PMS_P2;Temp;Humidity;BMP_temperature;BMP_pressure;BME280_temperature;BME280_humidity;BME280_pressure;Samples;Min_cycle;Max_cycle;Signal;HPM_P1;HPM_P2
2021/09/20 00:01:18;;;;;;;10.27;9.27;;;11.60;1.00;;;;;;5037700;28;20502;-47
2021/09/20 00:03:45;;;;;;;10.83;9.80;;;11.60;1.00;;;;;;5037622;28;20491;-49
2021/09/20 00:06:12;;;;;;;9.87;8.90;;;11.50;1.00;;;;;;5037419;28;20474;-46
2021/09/20 00:08:41;;;;;;;10.50;9.40;;;11.50;1.00;;;;;;5037705;28;20491;-49
2021/09/20 00:11:08;;;;;;;10.03;9.13;;;11.50;1.00;;;;;;5052588;28;20482;-54
2021/09/20 00:13:35;;;;;;;10.20;9.20;;;11.40;1.00;;;;;;5057476;28;20441;-49
2021/09/20 00:16:02;;;;;;;12.27;9.33;;;11.40;1.00;;;;;;5057147;28;20540;-55
2021/09/20 00:18:29;;;;;;;11.53;9.77;;;11.40;1.00;;;;;;5057426;28;20482;-48
2021/09/20 00:20:56;;;;;;;9.97;9.07;;;11.40;1.00;;;;;;5056248;28;20529;-49
2021/09/20 00:23:23;;;;;;;9.80;8.83;;;11.40;1.00;;;;;;5056483;28;20486;-47
2021/09/20 00:25:53;;;;;;;10.47;9.47;;;11.40;1.00;;;;;;5038276;28;20515;-53
2021/09/20 00:28:20;;;;;;;11.37;10.37;;;11.40;1.00;;;;;;5036592;28;20473;-48
2021/09/20 00:30:47;;;;;;;9.77;8.87;;;11.50;1.00;;;;;;5036821;28;20487;-49
2021/09/20 00:33:15;;;;;;;11.97;10.30;;;11.40;1.00;;;;;;5037241;28;20498;-48
2021/09/20 00:35:41;;;;;;;9.77;8.83;;;11.40;1.00;;;;;;5037094;28;21263;-48
2021/09/20 00:38:08;;;;;;;9.97;9.07;;;11.40;1.00;;;;;;5036671;28;20502;-48
2021/09/20 00:40:35;;;;;;;10.03;9.13;;;11.30;1.00;;;;;;5036770;28;20827;-49
2021/09/20 00:43:06;;;;;;;9.47;8.67;;;11.20;23.00;;;;;;5036487;28;20493;-51
2021/09/20 00:45:33;;;;;;;10.63;9.53;;;11.20;99.90;;;;;;5037067;28;20976;-54
2021/09/20 00:48:00;;;;;;;11.40;10.10;;;11.20;99.90;;;;;;5036759;28;20997;-51
2021/09/20 00:50:27;;;;;;;10.50;9.60;;;11.20;99.90;;;;;;5036728;28;20475;-55
2021/09/20 00:52:54;;;;;;;10.47;9.47;;;11.30;99.90;;;;;;5036780;28;20807;-52
2021/09/20 00:55:24;;;;;;;10.20;9.20;;;11.30;99.90;;;;;;5037291;28;20906;-50
2021/09/20 00:57:51;;;;;;;11.60;10.40;;;11.30;99.90;;;;;;5036440;28;20518;-50
2021/09/20 01:00:23;;;;;;;10.23;9.33;;;11.30;99.90;;;;;;5036642;28;20527;-55
2021/09/20 01:02:50;;;;;;;9.83;8.83;;;11.30;99.90;;;;;;5049085;28;20506;-48
2021/09/20 01:05:17;;;;;;;10.43;9.53;;;11.40;99.90;;;;;;5055912;28;20514;-50
2021/09/20 01:07:44;;;;;;;10.00;9.10;;;11.40;99.90;;;;;;5056257;28;20813;-51
2021/09/20 01:10:12;;;;;;;9.80;8.90;;;11.40;99.90;;;;;;5048600;28;20463;-50
2021/09/20 01:12:39;;;;;;;10.10;9.13;;;11.40;99.90;;;;;;5036573;28;20459;-47
2021/09/20 01:15:08;;;;;;;11.13;10.10;;;11.40;99.90;;;;;;5036459;28;20469;-53
2021/09/20 01:17:36;;;;;;;9.43;8.53;;;11.30;99.90;;;;;;5036544;28;20502;-51
2021/09/20 01:20:05;;;;;;;10.70;9.70;;;11.30;99.90;;;;;;5036562;28;20495;-51
2021/09/20 01:22:33;;;;;;;10.50;9.60;;;11.30;99.90;;;;;;5049554;28;20548;-50
2021/09/20 01:25:01;;;;;;;10.60;9.67;;;11.30;99.90;;;;;;5056471;28;20502;-51
2021/09/20 01:27:29;;;;;;;12.00;10.90;;;11.30;99.90;;;;;;5056304;28;20487;-51
2021/09/20 01:29:56;;;;;;;10.33;9.40;;;11.30;99.90;;;;;;5056099;28;20522;-50
2021/09/20 01:32:25;;;;;;;11.10;10.10;;;11.30;99.90;;;;;;5056661;28;20806;-49
2021/09/20 01:34:52;;;;;;;12.23;11.03;;;11.30;99.90;;;;;;5056596;28;20506;-50
2021/09/20 01:37:18;;;;;;;10.23;9.20;;;11.20;99.90;;;;;;5056580;28;20828;-53
2021/09/20 01:39:45;;;;;;;11.67;10.67;;;11.20;99.90;;;;;;5056288;28;20488;-48
2021/09/20 01:45:38;;;;;;;11.50;10.40;;;11.20;99.90;;;;;;5055837;28;20883;-51
2021/09/20 01:48:09;;;;;;;10.83;9.83;;;11.10;99.90;;;;;;5056204;28;20527;-52
2021/09/20 01:50:36;;;;;;;11.27;10.10;;;11.10;1.00;;;;;;5056287;28;20479;-52
2021/09/20 01:53:05;;;;;;;11.30;10.30;;;11.20;1.00;;;;;;5036996;28;20497;-53
2021/09/20 01:55:32;;;;;;;12.93;10.73;;;11.20;1.00;;;;;;5039866;28;20461;-52
2021/09/20 01:57:59;;;;;;;11.50;10.30;;;11.10;1.00;;;;;;5039570;28;20582;-50
2021/09/20 02:00:26;;;;;;;10.70;9.70;;;11.10;1.00;;;;;;5040271;28;20463;-54
2021/09/20 02:02:57;;;;;;;11.80;10.60;;;11.00;1.00;;;;;;5039835;28;20848;-52
2021/09/20 02:05:24;;;;;;;10.90;9.90;;;11.00;1.00;;;;;;5039499;28;20471;-50
2021/09/20 02:07:51;;;;;;;10.73;9.73;;;11.00;1.00;;;;;;5038969;28;20471;-54
2021/09/20 02:10:22;;;;;;;10.50;9.50;;;11.00;1.00;;;;;;5048107;28;20966;-52
2021/09/20 02:12:49;;;;;;;11.53;10.53;;;11.00;51.70;;;;;;5059541;28;20458;-48
2021/09/20 02:15:16;;;;;;;11.40;9.60;;;11.00;99.90;;;;;;5057474;28;20466;-52
2021/09/20 02:17:44;;;;;;;11.67;10.57;;;11.00;99.90;;;;;;5039917;28;20824;-48
2021/09/20 02:20:13;;;;;;;11.20;10.10;;;10.90;99.90;;;;;;5039170;28;20885;-50
2021/09/20 02:22:41;;;;;;;12.20;11.00;;;10.90;99.90;;;;;;5054924;28;20564;-47
2021/09/20 02:25:12;;;;;;;11.73;10.63;;;11.00;99.90;;;;;;5059526;28;20895;-49
2021/09/20 02:27:39;;;;;;;12.07;9.70;;;11.00;99.90;;;;;;5059524;28;20535;-52
2021/09/20 02:30:08;;;;;;;10.97;9.80;;;10.90;1.00;;;;;;5058803;28;20494;-52
2021/09/20 02:32:36;;;;;;;10.63;9.63;;;10.90;99.90;;;;;;5058875;28;20519;-48
2021/09/20 02:35:07;;;;;;;11.17;10.17;;;10.90;99.90;;;;;;5058508;28;20472;-52
2021/09/20 02:37:36;;;;;;;15.37;10.00;;;11.00;99.90;;;;;;5059564;28;20743;-52
2021/09/20 02:40:06;;;;;;;11.17;9.97;;;10.90;99.90;;;;;;5059072;28;20466;-49
2021/09/20 02:42:33;;;;;;;13.90;11.53;;;10.90;99.90;;;;;;5058061;28;20494;-52
2021/09/20 02:45:01;;;;;;;11.47;9.90;;;11.00;99.90;;;;;;5058898;28;20462;-48
2021/09/20 02:47:28;;;;;;;11.13;10.07;;;11.00;99.90;;;;;;5059234;28;20437;-52
2021/09/20 02:49:55;;;;;;;11.43;10.33;;;11.00;99.90;;;;;;5054936;28;20562;-53
2021/09/20 02:52:22;;;;;;;11.90;10.70;;;11.00;99.90;;;;;;5038882;28;20745;-48
2021/09/20 02:54:50;;;;;;;13.00;10.87;;;11.00;99.90;;;;;;5038267;28;20536;-51
2021/09/20 02:57:17;;;;;;;12.77;11.57;;;11.00;99.90;;;;;;5038867;28;20437;-47
2021/09/20 02:59:46;;;;;;;11.37;10.27;;;11.00;99.90;;;;;;5038610;28;20875;-50
2021/09/20 03:02:13;;;;;;;12.73;11.43;;;11.00;99.90;;;;;;5038316;28;20498;-48
2021/09/20 03:04:40;;;;;;;14.07;10.87;;;11.00;99.90;;;;;;5038615;28;20463;-52
2021/09/20 03:07:08;;;;;;;12.60;11.30;;;10.90;99.90;;;;;;5039118;28;20917;-49
2021/09/20 03:09:35;;;;;;;11.53;10.33;;;10.90;99.90;;;;;;5041282;28;20467;-48
2021/09/20 03:12:06;;;;;;;11.30;10.10;;;10.90;99.90;;;;;;5058391;28;20458;-50
2021/09/20 03:14:33;;;;;;;11.23;10.13;;;10.90;99.90;;;;;;5058630;28;20506;-53
2021/09/20 03:16:59;;;;;;;12.03;10.83;;;10.90;99.90;;;;;;5058518;28;20462;-49
2021/09/20 03:19:26;;;;;;;12.70;11.40;;;10.90;99.90;;;;;;5058453;28;20954;-47
2021/09/20 03:21:53;;;;;;;12.10;11.00;;;10.90;99.90;;;;;;5057920;28;20468;-51
2021/09/20 03:24:20;;;;;;;11.63;10.50;;;10.90;99.90;;;;;;5058079;28;20445;-48
2021/09/20 03:26:47;;;;;;;12.30;11.10;;;10.90;99.90;;;;;;5058212;28;20490;-50
2021/09/20 03:29:16;;;;;;;12.30;11.10;;;10.90;99.90;;;;;;5057946;28;20494;-49
2021/09/20 03:31:43;;;;;;;11.53;10.43;;;10.90;99.90;;;;;;5057934;28;20508;-53
2021/09/20 03:34:10;;;;;;;15.07;11.80;;;10.90;99.90;;;;;;5057430;28;20829;-50
2021/09/20 03:36:37;;;;;;;11.80;10.60;;;11.00;99.90;;;;;;5058428;28;20462;-51
2021/09/20 03:39:04;;;;;;;13.10;10.50;;;11.00;99.90;;;;;;5058005;28;20496;-52
2021/09/20 03:41:31;;;;;;;13.03;11.80;;;11.00;44.50;;;;;;5053777;28;20765;-49
2021/09/20 03:43:58;;;;;;;12.37;11.20;;;10.90;95.60;;;;;;5054213;28;20500;-47
2021/09/20 03:46:27;;;;;;;11.37;10.23;;;10.90;99.90;;;;;;5037860;28;20467;-50
2021/09/20 03:48:54;;;;;;;13.50;11.30;;;10.90;99.90;;;;;;5037871;28;20459;-48
2021/09/20 03:51:21;;;;;;;12.87;11.30;;;10.80;99.90;;;;;;5037999;28;20459;-51
2021/09/20 03:53:50;;;;;;;13.03;11.60;;;10.70;99.90;;;;;;5037812;28;20463;-48
2021/09/20 03:56:20;;;;;;;13.13;11.50;;;10.80;1.00;;;;;;5037540;28;20471;-51
2021/09/20 03:58:47;;;;;;;12.93;11.40;;;10.80;1.00;;;;;;5037600;28;20551;-50
2021/09/20 04:01:14;;;;;;;12.27;11.07;;;10.80;1.00;;;;;;5037502;28;20517;-49
2021/09/20 04:03:42;;;;;;;12.40;11.10;;;10.90;99.90;;;;;;5037672;28;20561;-49
2021/09/20 04:06:09;;;;;;;14.20;11.53;;;10.90;99.90;;;;;;5037485;28;20898;-47
2021/09/20 04:08:40;;;;;;;12.43;11.10;;;10.90;99.90;;;;;;5037886;28;20467;-54
2021/09/20 04:11:07;;;;;;;13.10;11.70;;;10.90;99.90;;;;;;5037341;28;20529;-51
2021/09/20 04:13:34;;;;;;;13.03;11.73;;;11.00;99.90;;;;;;5037554;28;20459;-52
2021/09/20 04:16:01;;;;;;;12.50;11.13;;;10.90;99.90;;;;;;5036928;28;20462;-52
2021/09/20 04:18:29;;;;;;;12.67;11.40;;;10.90;99.90;;;;;;5036989;28;20553;-52
2021/09/20 04:21:02;;;;;;;13.40;11.70;;;11.00;99.90;;;;;;5037988;28;20467;-54
2021/09/20 04:23:29;;;;;;;11.77;10.60;;;11.00;99.90;;;;;;5056934;28;20490;-55
2021/09/20 04:25:56;;;;;;;12.10;11.00;;;11.00;99.90;;;;;;5056947;28;20436;-53
2021/09/20 04:28:25;;;;;;;11.83;10.63;;;11.10;77.60;;;;;;5056223;28;20441;-50
2021/09/20 04:30:52;;;;;;;13.47;11.70;;;11.00;1.00;;;;;;5056162;28;20511;-52
2021/09/20 04:33:20;;;;;;;12.73;11.50;;;11.00;1.00;;;;;;5056695;28;20519;-47
2021/09/20 04:35:50;;;;;;;13.17;11.63;;;11.00;1.00;;;;;;5056327;28;20458;-48
2021/09/20 04:38:18;;;;;;;11.83;10.63;;;11.10;1.00;;;;;;5056589;28;20462;-49
2021/09/20 04:40:46;;;;;;;12.00;10.90;;;11.10;1.00;;;;;;5056635;28;20487;-51
2021/09/20 04:43:13;;;;;;;12.33;11.13;;;11.10;1.00;;;;;;5056958;28;21006;-50
2021/09/20 04:45:42;;;;;;;13.63;11.47;;;11.10;1.00;;;;;;5057271;28;20458;-48
2021/09/20 04:48:11;;;;;;;12.67;11.47;;;11.10;1.00;;;;;;5056060;28;20486;-51
2021/09/20 04:50:39;;;;;;;12.90;11.60;;;11.10;1.00;;;;;;5055962;28;20488;-50
2021/09/20 04:53:06;;;;;;;13.30;11.90;;;11.10;1.00;;;;;;5056214;28;20462;-49
2021/09/20 04:55:34;;;;;;;12.93;11.70;;;11.10;1.00;;;;;;5056509;28;20516;-52
2021/09/20 04:58:05;;;;;;;13.07;11.67;;;11.10;1.00;;;;;;5056649;28;20437;-51
2021/09/20 05:00:32;;;;;;;12.30;11.10;;;11.10;1.00;;;;;;5056523;28;20556;-49
2021/09/20 05:03:02;;;;;;;11.90;10.63;;;11.00;1.00;;;;;;5054320;28;20589;-49
2021/09/20 05:05:35;;;;;;;13.07;11.77;;;11.00;1.00;;;;;;5055270;28;20966;-48
2021/09/20 05:08:04;;;;;;;14.17;11.73;;;11.00;1.00;;;;;;5055860;28;20470;-49
2021/09/20 05:10:33;;;;;;;13.47;11.33;;;11.00;1.00;;;;;;5054810;28;20466;-46
2021/09/20 05:13:02;;;;;;;15.03;12.10;;;11.10;1.00;;;;;;5056713;28;20461;-52
2021/09/20 05:15:29;;;;;;;13.87;11.90;;;11.10;1.00;;;;;;5056805;28;20464;-51
2021/09/20 05:17:56;;;;;;;13.80;12.40;;;11.10;1.00;;;;;;5054969;28;20470;-48
2021/09/20 05:20:23;;;;;;;12.73;11.43;;;11.10;1.00;;;;;;5056138;28;20495;-52
2021/09/20 05:22:51;;;;;;;12.10;10.90;;;11.10;1.00;;;;;;5055878;28;20490;-49
2021/09/20 05:25:18;;;;;;;14.00;12.50;;;11.00;1.00;;;;;;5056616;28;20531;-47
2021/09/20 05:27:46;;;;;;;15.93;12.00;;;11.00;1.00;;;;;;5046049;28;20533;-50
2021/09/20 05:30:15;;;;;;;14.00;10.83;;;11.00;57.30;;;;;;5042605;28;20502;-49
2021/09/20 05:32:43;;;;;;;12.97;11.63;;;11.00;14.50;;;;;;5059784;28;20470;-51
2021/09/20 05:35:11;;;;;;;14.87;11.17;;;11.10;1.60;;;;;;5053657;28;20479;-52
2021/09/20 05:37:40;;;;;;;15.00;11.30;;;11.10;1.00;;;;;;5039748;28;20467;-49
2021/09/20 05:40:11;;;;;;;15.60;12.00;;;11.10;1.00;;;;;;5039170;28;20458;-51
2021/09/20 05:42:41;;;;;;;14.23;11.43;;;11.10;1.00;;;;;;5038935;28;20850;-51
2021/09/20 05:45:14;;;;;;;13.63;10.83;;;11.20;1.00;;;;;;5040114;28;20488;-50
2021/09/20 05:47:45;;;;;;;11.60;10.40;;;11.30;1.00;;;;;;5040263;28;20769;-46
2021/09/20 05:50:13;;;;;;;12.70;11.50;;;11.40;1.00;;;;;;5040343;28;20459;-48
2021/09/20 05:52:40;;;;;;;13.50;12.07;;;11.40;99.90;;;;;;5039977;28;20470;-46
2021/09/20 05:55:09;;;;;;;13.13;11.73;;;11.40;99.90;;;;;;5038818;28;20524;-52
2021/09/20 05:57:36;;;;;;;13.27;10.53;;;11.50;99.90;;;;;;5038594;28;20467;-49
2021/09/20 06:00:06;;;;;;;12.50;11.20;;;11.50;99.90;;;;;;5037767;28;20463;-47
2021/09/20 06:02:37;;;;;;;13.40;11.50;;;11.50;99.90;;;;;;5038146;28;20487;-47
2021/09/20 06:05:07;;;;;;;11.83;10.60;;;11.50;99.90;;;;;;5038581;28;20557;-51
2021/09/20 06:07:39;;;;;;;12.20;10.87;;;11.50;99.90;;;;;;5039338;28;20471;-51
2021/09/20 06:10:13;;;;;;;14.23;12.13;;;11.60;99.90;;;;;;5045654;28;20436;-50
2021/09/20 06:12:40;;;;;;;12.37;11.07;;;11.60;99.90;;;;;;5059209;28;20454;-48
2021/09/20 06:15:10;;;;;;;12.80;11.37;;;11.60;97.70;;;;;;5059045;28;20817;-50
2021/09/20 06:17:39;;;;;;;13.97;10.93;;;11.60;99.90;;;;;;5059487;28;20470;-52
2021/09/20 06:20:10;;;;;;;13.10;11.80;;;11.60;69.60;;;;;;5059296;28;20893;-50
2021/09/20 06:22:37;;;;;;;12.47;11.17;;;11.60;73.50;;;;;;5059279;28;20526;-54
2021/09/20 06:25:08;;;;;;;12.17;10.97;;;11.70;43.10;;;;;;5059508;28;20466;-50
2021/09/20 06:27:35;;;;;;;13.63;10.30;;;11.80;27.70;;;;;;5059576;28;20947;-51
2021/09/20 06:30:03;;;;;;;12.10;10.80;;;11.70;1.00;;;;;;5059041;28;20590;-46
2021/09/20 06:32:32;;;;;;;16.03;10.87;;;11.80;1.00;;;;;;5059297;28;20458;-47
2021/09/20 06:35:00;;;;;;;13.90;11.43;;;11.80;1.00;;;;;;5059422;28;20525;-47
2021/09/20 06:37:31;;;;;;;11.70;10.10;;;11.90;1.00;;;;;;5059598;28;20539;-47
2021/09/20 06:40:01;;;;;;;13.13;10.90;;;11.80;1.00;;;;;;5058443;28;20462;-46
2021/09/20 06:42:33;;;;;;;12.77;10.40;;;11.90;1.00;;;;;;5059139;28;20465;-46
2021/09/20 06:45:08;;;;;;;14.23;12.67;;;12.00;1.00;;;;;;5059198;28;20517;-49
2021/09/20 06:47:36;;;;;;;10.90;9.80;;;12.00;1.00;;;;;;5059210;28;20507;-52
2021/09/20 06:50:06;;;;;;;11.87;10.67;;;12.00;1.00;;;;;;5059019;28;20462;-47
2021/09/20 06:52:39;;;;;;;13.63;11.70;;;12.10;1.00;;;;;;5058951;28;20462;-46
2021/09/20 06:55:07;;;;;;;12.07;10.87;;;12.20;1.00;;;;;;5058378;28;20441;-47
2021/09/20 06:57:35;;;;;;;12.07;10.87;;;12.10;1.00;;;;;;5058955;28;20466;-47
2021/09/20 07:00:03;;;;;;;12.20;11.00;;;12.10;1.00;;;;;;5058211;28;20794;-46
2021/09/20 07:02:30;;;;;;;11.10;9.97;;;12.20;1.00;;;;;;5058304;28;20462;-46
2021/09/20 07:04:58;;;;;;;16.53;12.07;;;12.20;1.00;;;;;;5058709;28;20458;-46
2021/09/20 07:07:25;;;;;;;13.93;11.83;;;12.30;1.00;;;;;;5058644;28;20441;-48
2021/09/20 07:09:54;;;;;;;12.20;11.03;;;12.30;1.00;;;;;;5058382;28;20458;-49
2021/09/20 07:12:21;;;;;;;14.10;10.70;;;12.30;1.00;;;;;;5058183;28;20517;-49
2021/09/20 07:14:48;;;;;;;11.90;10.80;;;12.50;1.00;;;;;;5058422;28;20520;-51
2021/09/20 07:17:17;;;;;;;11.00;10.00;;;12.50;1.00;;;;;;5058587;28;20466;-46
2021/09/20 07:19:44;;;;;;;10.90;10.00;;;12.50;1.00;;;;;;5058227;28;20955;-46
2021/09/20 07:22:13;;;;;;;10.83;9.73;;;12.50;1.00;;;;;;5057953;28;20474;-47
2021/09/20 07:24:40;;;;;;;12.07;10.80;;;12.60;1.00;;;;;;5058264;28;20472;-56
2021/09/20 07:27:09;;;;;;;14.53;10.67;;;12.70;1.00;;;;;;5058248;28;20820;-52
2021/09/20 07:29:39;;;;;;;11.43;10.33;;;12.70;1.00;;;;;;5057916;28;20968;-52
2021/09/20 07:32:07;;;;;;;11.87;10.67;;;12.70;1.00;;;;;;5057724;28;20553;-47
2021/09/20 07:34:34;;;;;;;11.40;10.10;;;12.80;1.00;;;;;;5058162;28;20461;-46
2021/09/20 07:37:04;;;;;;;11.83;9.57;;;12.90;1.00;;;;;;5058031;28;20466;-46
2021/09/20 07:39:32;;;;;;;11.30;10.30;;;12.80;1.00;;;;;;5058129;28;20496;-46
2021/09/20 07:42:00;;;;;;;11.30;10.23;;;12.80;1.00;;;;;;5057808;28;20893;-46
2021/09/20 07:44:28;;;;;;;14.33;10.40;;;12.90;1.00;;;;;;5057634;28;20494;-48
2021/09/20 07:46:55;;;;;;;11.63;9.50;;;12.90;1.00;;;;;;5057772;28;20502;-51
2021/09/20 07:49:22;;;;;;;9.90;8.90;;;13.20;1.00;;;;;;5057555;28;20899;-52
2021/09/20 07:51:50;;;;;;;11.47;10.37;;;13.10;1.00;;;;;;5056628;28;20491;-49
2021/09/20 07:54:18;;;;;;;12.70;11.40;;;13.10;1.00;;;;;;5056696;28;20463;-47
2021/09/20 07:56:47;;;;;;;12.43;10.17;;;13.20;1.00;;;;;;5057728;28;20759;-53
2021/09/20 07:59:18;;;;;;;11.70;10.07;;;13.30;1.00;;;;;;5057811;28;20462;-50
2021/09/20 08:01:51;;;;;;;11.67;10.47;;;13.40;1.00;;;;;;5057661;28;20462;-46
2021/09/20 08:04:18;;;;;;;9.73;8.73;;;13.50;1.00;;;;;;5057670;28;20967;-46
2021/09/20 08:06:48;;;;;;;12.40;10.87;;;13.60;1.00;;;;;;5057077;28;20458;-46
2021/09/20 08:09:18;;;;;;;10.20;9.23;;;13.80;1.00;;;;;;5052420;28;20462;-48
2021/09/20 08:11:45;;;;;;;11.90;10.80;;;14.00;1.00;;;;;;5038393;28;20464;-48
2021/09/20 08:14:17;;;;;;;10.87;9.90;;;14.00;1.00;;;;;;5042880;28;20462;-46
2021/09/20 08:16:43;;;;;;;10.87;9.87;;;14.00;1.00;;;;;;5055424;28;20458;-49
2021/09/20 08:19:13;;;;;;;11.80;10.70;;;14.10;1.00;;;;;;5056506;28;20466;-46
2021/09/20 08:21:42;;;;;;;10.73;9.63;;;13.90;1.00;;;;;;5056702;28;20458;-48
2021/09/20 08:24:12;;;;;;;10.20;9.20;;;14.10;1.00;;;;;;5056862;28;20494;-46
2021/09/20 08:26:39;;;;;;;11.00;9.90;;;14.30;1.00;;;;;;5056946;28;20448;-46
2021/09/20 08:29:06;;;;;;;10.80;9.70;;;14.50;99.90;;;;;;5056730;28;20915;-51
2021/09/20 08:31:44;;;;;;;9.27;8.47;;;14.60;99.90;;;;;;5057234;28;20436;-50
2021/09/20 08:34:18;;;;;;;9.40;8.50;;;14.50;99.90;;;;;;5057013;28;20807;-46
2021/09/20 08:36:45;;;;;;;9.57;8.67;;;14.50;99.90;;;;;;5057026;28;20441;-47
2021/09/20 08:39:12;;;;;;;8.37;7.23;;;14.50;99.90;;;;;;5057226;28;20462;-47
2021/09/20 08:41:41;;;;;;;9.97;8.93;;;14.60;99.90;;;;;;5057128;28;20458;-48
2021/09/20 08:44:11;;;;;;;9.00;8.20;;;14.70;99.90;;;;;;5056630;28;20494;-46
2021/09/20 08:46:45;;;;;;;8.77;7.97;;;14.90;99.90;;;;;;5056846;28;20462;-49
2021/09/20 08:49:21;;;;;;;9.73;8.87;;;14.80;99.90;;;;;;5057178;28;20757;-52
2021/09/20 08:51:54;;;;;;;8.90;8.13;;;14.90;99.90;;;;;;5056365;28;20472;-48
2021/09/20 08:54:22;;;;;;;7.57;6.90;;;15.00;99.90;;;;;;5056753;28;20454;-47
2021/09/20 08:56:50;;;;;;;9.03;8.23;;;14.90;99.90;;;;;;5057150;28;20470;-50
2021/09/20 08:59:18;;;;;;;8.13;7.43;;;15.00;99.90;;;;;;5057024;28;20466;-46
2021/09/20 09:01:58;;;;;;;8.83;8.13;;;15.00;99.90;;;;;;5056606;28;20462;-47
2021/09/20 09:04:34;;;;;;;8.90;8.10;;;15.10;99.90;;;;;;5060677;28;20767;-48
2021/09/20 09:07:07;;;;;;;7.43;6.83;;;15.30;99.90;;;;;;5061028;28;20902;-48
2021/09/20 09:09:37;;;;;;;9.27;8.47;;;15.40;99.90;;;;;;5060408;28;20466;-48
2021/09/20 09:12:19;;;;;;;7.23;6.53;;;15.50;99.90;;;;;;5060516;28;20563;-45
2021/09/20 09:14:48;;;;;;;9.40;8.50;;;15.50;99.90;;;;;;5060634;28;20909;-47
2021/09/20 09:17:19;;;;;;;8.43;7.70;;;15.50;99.90;;;;;;5061015;28;20471;-46
2021/09/20 09:19:54;;;;;;;8.10;7.30;;;15.80;99.90;;;;;;5060508;28;20948;-46
2021/09/20 09:22:24;;;;;;;7.83;7.03;;;16.00;99.90;;;;;;5060741;28;20466;-50
2021/09/20 09:24:56;;;;;;;9.67;8.77;;;16.40;99.90;;;;;;5060754;28;20547;-46
2021/09/20 09:27:27;;;;;;;6.93;6.40;;;16.40;99.90;;;;;;5040210;28;20462;-48
2021/09/20 09:30:04;;;;;;;7.43;6.90;;;16.60;99.90;;;;;;5039010;28;20495;-45
2021/09/20 09:32:31;;;;;;;7.30;6.70;;;16.60;99.90;;;;;;5039234;28;20924;-49
2021/09/20 09:35:05;;;;;;;11.47;7.73;;;16.70;99.90;;;;;;5038917;28;20440;-45
2021/09/20 09:37:33;;;;;;;7.73;7.10;;;16.70;99.90;;;;;;5039896;28;20440;-53
2021/09/20 09:40:21;;;;;;;7.33;6.63;;;16.50;99.90;;;;;;5040220;28;20442;-50
2021/09/20 09:42:51;;;;;;;7.57;6.97;;;16.60;99.90;;;;;;5056141;28;20466;-50
2021/09/20 09:45:30;;;;;;;9.50;6.90;;;16.70;99.90;;;;;;5059252;28;20495;-48
2021/09/20 09:48:13;;;;;;;7.63;6.90;;;16.60;99.90;;;;;;5060240;28;20468;-46
2021/09/20 09:50:45;;;;;;;7.43;6.77;;;16.70;99.90;;;;;;5060218;28;20462;-50
2021/09/20 09:53:24;;;;;;;7.27;6.60;;;16.90;99.90;;;;;;5060054;28;20569;-49
2021/09/20 09:55:51;;;;;;;7.80;7.10;;;17.20;99.90;;;;;;5059253;28;20473;-50
2021/09/20 09:58:19;;;;;;;7.30;6.70;;;17.30;99.90;;;;;;5059951;28;20458;-49
2021/09/20 10:00:49;;;;;;;8.70;7.73;;;17.40;99.90;;;;;;5059953;28;20560;-50
2021/09/20 10:03:16;;;;;;;6.43;5.93;;;17.60;99.90;;;;;;5059839;28;20893;-48
2021/09/20 10:05:58;;;;;;;6.30;5.80;;;17.40;99.90;;;;;;5059586;28;20488;-45
2021/09/20 10:08:31;;;;;;;6.30;5.70;;;17.50;99.90;;;;;;5060016;28;20901;-48
2021/09/20 10:10:59;;;;;;;7.20;6.60;;;17.60;99.90;;;;;;5045312;28;20546;-46
2021/09/20 10:13:29;;;;;;;6.77;6.17;;;18.10;99.90;;;;;;5039848;28;20463;-52
2021/09/20 10:15:58;;;;;;;6.70;6.00;;;18.50;99.90;;;;;;5046799;28;20433;-47
2021/09/20 10:18:27;;;;;;;6.70;6.10;;;19.00;99.90;;;;;;5059440;28;20462;-48
2021/09/20 10:20:55;;;;;;;6.53;5.60;;;19.10;99.90;;;;;;5059627;28;20541;-48
2021/09/20 10:23:23;;;;;;;6.13;5.63;;;18.90;99.90;;;;;;5059725;28;20958;-51
2021/09/20 10:25:54;;;;;;;6.97;6.43;;;18.60;99.90;;;;;;5059113;28;20465;-45
2021/09/20 10:28:21;;;;;;;6.77;6.23;;;18.30;99.90;;;;;;5059186;28;20470;-45
2021/09/20 10:30:53;;;;;;;7.37;6.50;;;17.80;99.90;;;;;;5059329;28;20433;-51
2021/09/20 10:33:27;;;;;;;7.27;6.53;;;17.80;99.90;;;;;;5059444;28;20466;-46
2021/09/20 10:35:55;;;;;;;7.47;6.87;;;17.70;99.90;;;;;;5058873;28;20458;-49
2021/09/20 10:38:32;;;;;;;7.00;6.30;;;17.60;99.90;;;;;;5059196;28;20466;-52
2021/09/20 10:41:13;;;;;;;7.13;6.53;;;17.60;99.90;;;;;;5058935;28;20464;-48
2021/09/20 10:43:44;;;;;;;7.77;7.07;;;17.70;99.90;;;;;;5055021;28;20997;-51
2021/09/20 10:46:25;;;;;;;7.70;7.00;;;17.90;99.90;;;;;;5058605;28;20494;-49
2021/09/20 10:48:58;;;;;;;8.03;7.33;;;17.70;99.90;;;;;;5054946;28;20474;-53
2021/09/20 10:51:35;;;;;;;7.73;7.17;;;17.50;99.90;;;;;;5055789;28;20525;-48
2021/09/20 10:54:22;;;;;;;7.37;6.80;;;17.20;99.90;;;;;;5043196;28;20469;-54
2021/09/20 10:56:56;;;;;;;7.03;6.43;;;17.20;99.90;;;;;;5051742;28;20461;-47
2021/09/20 10:59:36;;;;;;;8.40;7.70;;;17.10;99.90;;;;;;5046060;28;20978;-55
2021/09/20 11:02:15;;;;;;;7.83;7.13;;;17.30;99.90;;;;;;5049022;28;20481;-51
2021/09/20 11:04:47;;;;;;;6.90;6.30;;;17.30;99.90;;;;;;5048751;28;20556;-50
2021/09/20 11:07:23;;;;;;;7.43;6.83;;;17.60;99.90;;;;;;5056116;28;20536;-51
2021/09/20 11:10:10;;;;;;;7.57;6.97;;;18.50;99.90;;;;;;5052904;28;20901;-45
2021/09/20 11:12:57;;;;;;;6.83;6.33;;;19.80;99.90;;;;;;5052055;28;20473;-52
2021/09/20 11:15:26;;;;;;;7.27;6.70;;;20.60;99.90;;;;;;5051122;28;20910;-48
2021/09/20 11:17:54;;;;;;;6.83;6.30;;;20.30;99.90;;;;;;5056986;28;20486;-48
2021/09/20 11:20:42;;;;;;;7.80;7.20;;;19.50;99.90;;;;;;5044369;28;20454;-52
2021/09/20 11:23:28;;;;;;;8.03;7.43;;;18.90;99.90;;;;;;5043803;28;20462;-49
2021/09/20 11:26:24;;;;;;;7.57;7.07;;;18.50;99.90;;;;;;5050516;28;20828;-52
2021/09/20 11:28:53;;;;;;;8.20;7.50;;;18.10;99.90;;;;;;5055430;28;20530;-51
2021/09/20 11:31:27;;;;;;;8.60;7.90;;;17.80;99.90;;;;;;5055245;28;20512;-53
2021/09/20 11:33:57;;;;;;;8.70;8.00;;;17.80;99.90;;;;;;5043147;28;20868;-51
2021/09/20 11:36:28;;;;;;;7.33;6.83;;;17.70;99.90;;;;;;5051238;28;20526;-48
2021/09/20 11:39:23;;;;;;;8.00;7.30;;;17.60;99.90;;;;;;5051465;28;20455;-53
2021/09/20 11:42:00;;;;;;;8.03;7.43;;;17.50;99.90;;;;;;5044006;28;20475;-49
2021/09/20 11:44:29;;;;;;;7.37;6.70;;;17.60;99.90;;;;;;5036973;28;20808;-53
2021/09/20 11:46:56;;;;;;;7.40;6.70;;;17.70;99.90;;;;;;5037497;28;20463;-47
2021/09/20 11:49:26;;;;;;;8.73;7.77;;;18.20;99.90;;;;;;5041324;28;20966;-47
2021/09/20 11:51:53;;;;;;;7.53;6.80;;;19.30;99.90;;;;;;5056604;28;20462;-47
2021/09/20 11:54:33;;;;;;;7.40;6.80;;;20.50;99.90;;;;;;5055362;28;20742;-45
2021/09/20 11:57:20;;;;;;;10.17;7.10;;;21.60;99.90;;;;;;5057098;28;20524;-49
2021/09/20 11:59:50;;;;;;;12.00;7.20;;;22.20;99.90;;;;;;5052090;28;20478;-55
2021/09/20 12:02:35;;;;;;;7.37;6.63;;;22.60;99.90;;;;;;5056257;28;20508;-46
2021/09/20 12:05:05;;;;;;;7.00;6.50;;;23.00;99.90;;;;;;5057129;28;20593;-52
2021/09/20 12:07:34;;;;;;;7.03;6.43;;;22.40;99.90;;;;;;5057637;28;20489;-48
2021/09/20 12:10:02;;;;;;;9.90;7.10;;;21.90;99.90;;;;;;5050767;28;20505;-47
2021/09/20 12:12:36;;;;;;;8.00;7.40;;;20.80;99.90;;;;;;5037417;28;20463;-45
2021/09/20 12:15:08;;;;;;;8.00;7.30;;;19.40;99.90;;;;;;5037497;28;20553;-47
2021/09/20 12:17:55;;;;;;;7.70;7.00;;;19.10;99.90;;;;;;5052873;28;20462;-45
2021/09/20 12:20:25;;;;;;;8.40;7.00;;;19.10;99.90;;;;;;5040528;28;20448;-50
2021/09/20 12:22:55;;;;;;;7.93;7.43;;;19.00;99.90;;;;;;5057475;28;20462;-44
2021/09/20 12:25:31;;;;;;;7.63;7.03;;;18.90;99.90;;;;;;5057053;28;20841;-46
2021/09/20 12:28:01;;;;;;;8.07;7.27;;;18.90;99.90;;;;;;5056760;28;20576;-46
2021/09/20 12:30:35;;;;;;;7.23;6.53;;;18.90;99.90;;;;;;5056723;28;20486;-45
2021/09/20 12:33:13;;;;;;;7.43;6.83;;;18.80;99.90;;;;;;5057379;28;20905;-45
2021/09/20 12:35:42;;;;;;;7.90;7.37;;;18.70;99.90;;;;;;5057135;28;20888;-45
2021/09/20 12:38:21;;;;;;;7.90;7.17;;;18.70;99.90;;;;;;5056738;28;20548;-45
2021/09/20 12:40:50;;;;;;;7.60;6.73;;;18.70;99.90;;;;;;5053213;28;20470;-48
2021/09/20 12:43:26;;;;;;;7.27;6.77;;;18.60;99.90;;;;;;5056900;28;20462;-54
2021/09/20 12:45:56;;;;;;;7.93;7.10;;;18.80;99.90;;;;;;5048992;28;20553;-48
2021/09/20 12:48:35;;;;;;;6.83;6.33;;;18.90;99.90;;;;;;5051718;28;20478;-48
2021/09/20 12:51:13;;;;;;;7.13;6.63;;;19.20;99.90;;;;;;5042093;28;20470;-49
2021/09/20 12:53:42;;;;;;;8.03;7.23;;;19.90;99.90;;;;;;5036447;28;20548;-47
2021/09/20 12:56:13;;;;;;;7.60;7.00;;;20.20;99.90;;;;;;5049766;28;20437;-50